Time;durP1;ratioP1;P1;durP2;ratioP2;P2;SDS_P1;SDS_P2;PMS_P1;PMS_P2;Temp;Humidity;BMP_temperature;BMP_pressure;BME280_temperature;BME280_humidity;BME280_pressure;Samples;Min_cycle;Max_cycle;Signal;HPM_P1;HPM_P2
2023/08/11 00:01:33;;;;;;;4.70;3.07;;;;;;;;;;6249625;23;20425;-90
2023/08/11 00:03:59;;;;;;;3.50;2.67;;;;;;;;;;6228984;23;20386;-92
2023/08/11 00:06:25;;;;;;;5.80;3.00;;;;;;;;;;6202872;23;20389;-88
2023/08/11 00:08:53;;;;;;;3.70;2.73;;;;;;;;;;6206628;23;20398;-89
2023/08/11 00:11:19;;;;;;;3.67;3.00;;;;;;;;;;6203977;23;20378;-89
2023/08/11 00:13:45;;;;;;;2.93;2.37;;;;;;;;;;6206596;23;20362;-91
2023/08/11 00:16:11;;;;;;;2.97;2.67;;;;;;;;;;6201781;23;20381;-91
2023/08/11 00:18:39;;;;;;;3.50;2.80;;;;;;;;;;6207594;23;20382;-88
2023/08/11 00:21:05;;;;;;;4.80;3.50;;;;;;;;;;6202885;23;20441;-91
2023/08/11 00:23:32;;;;;;;5.33;3.33;;;;;;;;;;6207952;23;20386;-91
2023/08/11 00:25:58;;;;;;;3.00;2.70;;;;;;;;;;6203026;23;20389;-91
2023/08/11 00:28:24;;;;;;;4.53;3.23;;;;;;;;;;6211653;23;20476;-91
2023/08/11 00:30:50;;;;;;;4.53;3.10;;;;;;;;;;6197602;23;20376;-90
2023/08/11 00:33:16;;;;;;;3.93;2.73;;;;;;;;;;6172922;23;20466;-90
2023/08/11 00:35:43;;;;;;;4.43;2.73;;;;;;;;;;6173540;23;20379;-91
2023/08/11 00:38:09;;;;;;;4.00;3.17;;;;;;;;;;6173454;23;20379;-91
2023/08/11 00:40:36;;;;;;;6.73;3.67;;;;;;;;;;6173558;23;20445;-91
2023/08/11 00:43:02;;;;;;;5.20;3.10;;;;;;;;;;6172434;23;20585;-91
2023/08/11 00:45:28;;;;;;;3.27;2.97;;;;;;;;;;6172129;23;20375;-90
2023/08/11 00:47:59;;;;;;;4.57;3.73;;;;;;;;;;6174382;23;20374;-91
2023/08/11 00:50:25;;;;;;;4.10;2.87;;;;;;;;;;6164209;23;20385;-92
2023/08/11 00:52:51;;;;;;;5.87;2.87;;;;;;;;;;6115235;23;20388;-92
2023/08/11 00:55:21;;;;;;;6.10;3.10;;;;;;;;;;6116270;23;20427;-91
2023/08/11 00:57:47;;;;;;;5.70;2.50;;;;;;;;;;6114771;23;20468;-91
2023/08/11 01:00:15;;;;;;;5.23;3.67;;;;;;;;;;6116287;23;20420;-89
2023/08/11 01:02:42;;;;;;;3.93;2.80;;;;;;;;;;6136587;23;20404;-91
2023/08/11 01:05:11;;;;;;;3.50;2.80;;;;;;;;;;6122753;23;20368;-91
2023/08/11 01:07:39;;;;;;;4.30;2.97;;;;;;;;;;6149059;23;20380;-90
2023/08/11 01:10:21;;;;;;;3.97;3.30;;;;;;;;;;6202349;23;20363;-91
2023/08/11 01:12:53;;;;;;;3.70;3.27;;;;;;;;;;6198542;23;20382;-91
2023/08/11 01:15:20;;;;;;;3.63;2.43;;;;;;;;;;6199827;23;20470;-90
2023/08/11 01:17:46;;;;;;;4.07;2.83;;;;;;;;;;6198494;23;20406;-90
2023/08/11 01:20:15;;;;;;;4.07;3.23;;;;;;;;;;6203491;23;20465;-91
2023/08/11 01:22:47;;;;;;;4.03;3.00;;;;;;;;;;6197881;23;20407;-91
2023/08/11 01:25:13;;;;;;;6.83;4.83;;;;;;;;;;6200590;23;20376;-90
2023/08/11 01:27:48;;;;;;;3.50;3.17;;;;;;;;;;6198639;23;20486;-90
2023/08/11 01:30:14;;;;;;;3.80;3.00;;;;;;;;;;6200690;23;20442;-90
2023/08/11 01:32:40;;;;;;;3.90;3.00;;;;;;;;;;6196867;23;20375;-90
2023/08/11 01:35:09;;;;;;;6.53;3.20;;;;;;;;;;6203141;23;20406;-91
2023/08/11 01:37:35;;;;;;;5.00;3.40;;;;;;;;;;6198147;23;21209;-90
2023/08/11 01:40:04;;;;;;;4.17;3.17;;;;;;;;;;6215357;22;20372;-90
2023/08/11 01:42:31;;;;;;;3.80;2.87;;;;;;;;;;6236938;22;20381;-91
2023/08/11 01:44:57;;;;;;;3.00;2.67;;;;;;;;;;6234740;22;20370;-90
2023/08/11 01:47:23;;;;;;;3.60;2.77;;;;;;;;;;6234000;22;20369;-90
2023/08/11 01:49:49;;;;;;;3.63;2.90;;;;;;;;;;6235415;22;20389;-90
2023/08/11 01:52:15;;;;;;;4.30;3.07;;;;;;;;;;6235423;22;20405;-90
2023/08/11 01:54:44;;;;;;;3.70;2.90;;;;;;;;;;6232555;22;20843;-91
2023/08/11 01:57:10;;;;;;;4.33;3.47;;;;;;;;;;6233946;22;20397;-90
2023/08/11 01:59:36;;;;;;;3.10;2.67;;;;;;;;;;6233801;22;20358;-90
2023/08/11 02:02:02;;;;;;;3.60;3.00;;;;;;;;;;6220800;23;20477;-91
2023/08/11 02:04:28;;;;;;;4.67;3.37;;;;;;;;;;6204663;23;20397;-90
2023/08/11 02:06:55;;;;;;;4.17;3.00;;;;;;;;;;6206432;23;20740;-89
2023/08/11 02:09:21;;;;;;;4.23;2.80;;;;;;;;;;6204590;23;20394;-91
2023/08/11 02:11:47;;;;;;;5.63;3.30;;;;;;;;;;6214026;23;20389;-91
2023/08/11 02:14:13;;;;;;;3.37;2.90;;;;;;;;;;6205500;23;20488;-90
2023/08/11 02:16:39;;;;;;;4.27;3.27;;;;;;;;;;6206376;23;20413;-90
2023/08/11 02:19:05;;;;;;;3.77;2.97;;;;;;;;;;6204750;23;20382;-91
2023/08/11 02:21:31;;;;;;;3.03;2.73;;;;;;;;;;6204681;23;20409;-91
2023/08/11 02:23:57;;;;;;;8.30;3.00;;;;;;;;;;6205753;23;20468;-91
2023/08/11 02:26:23;;;;;;;2.80;2.50;;;;;;;;;;6203228;23;20400;-90
2023/08/11 02:28:49;;;;;;;4.53;3.40;;;;;;;;;;6204342;23;20410;-90
2023/08/11 02:31:17;;;;;;;4.00;2.87;;;;;;;;;;6204263;23;20728;-90
2023/08/11 02:33:44;;;;;;;3.37;2.77;;;;;;;;;;6206368;23;20378;-91
2023/08/11 02:36:10;;;;;;;3.73;3.33;;;;;;;;;;6203311;23;20382;-91
2023/08/11 02:38:36;;;;;;;3.27;2.90;;;;;;;;;;6205186;23;20382;-90
2023/08/11 02:41:03;;;;;;;4.90;3.10;;;;;;;;;;6204530;23;20475;-91
2023/08/11 02:43:29;;;;;;;4.40;3.50;;;;;;;;;;6207820;23;20468;-90
2023/08/11 02:45:55;;;;;;;5.20;3.47;;;;;;;;;;6203147;23;20370;-90
2023/08/11 02:48:21;;;;;;;3.33;3.03;;;;;;;;;;6203931;23;20413;-90
2023/08/11 02:50:47;;;;;;;6.13;3.10;;;;;;;;;;6203461;23;20746;-91
2023/08/11 02:53:14;;;;;;;4.83;3.13;;;;;;;;;;6204134;23;20374;-91
2023/08/11 02:55:40;;;;;;;3.70;2.83;;;;;;;;;;6202973;23;20374;-91
2023/08/11 02:58:06;;;;;;;4.03;2.80;;;;;;;;;;6232248;23;20379;-90
2023/08/11 03:00:34;;;;;;;4.10;3.40;;;;;;;;;;6228077;23;20412;-91
2023/08/11 03:03:01;;;;;;;5.40;3.00;;;;;;;;;;6235122;22;20469;-91
2023/08/11 03:05:27;;;;;;;4.37;3.60;;;;;;;;;;6233280;22;20397;-92
2023/08/11 03:07:53;;;;;;;4.30;3.13;;;;;;;;;;6235955;22;20381;-91
2023/08/11 03:10:19;;;;;;;3.97;3.33;;;;;;;;;;6235083;22;20361;-90
2023/08/11 03:12:45;;;;;;;4.67;3.20;;;;;;;;;;6237541;22;20353;-91
2023/08/11 03:15:11;;;;;;;4.70;3.37;;;;;;;;;;6234328;22;20372;-90
2023/08/11 03:17:37;;;;;;;3.60;3.07;;;;;;;;;;6241637;22;20365;-90
2023/08/11 03:20:10;;;;;;;3.67;3.03;;;;;;;;;;6233222;22;20393;-90
2023/08/11 03:22:36;;;;;;;3.13;2.77;;;;;;;;;;6234480;22;20373;-91
2023/08/11 03:25:02;;;;;;;4.47;3.57;;;;;;;;;;6258852;22;20365;-90
2023/08/11 03:27:28;;;;;;;3.63;2.67;;;;;;;;;;6237008;22;20377;-91
2023/08/11 03:29:54;;;;;;;3.70;3.00;;;;;;;;;;6234169;22;20427;-90
2023/08/11 03:32:21;;;;;;;5.10;3.40;;;;;;;;;;6234327;22;20450;-91
2023/08/11 03:34:48;;;;;;;3.23;2.70;;;;;;;;;;6263461;22;20417;-91
2023/08/11 03:37:14;;;;;;;3.50;3.20;;;;;;;;;;6233283;22;20373;-90
2023/08/11 03:39:41;;;;;;;3.50;3.17;;;;;;;;;;6237254;22;20439;-91
2023/08/11 03:42:07;;;;;;;3.53;3.20;;;;;;;;;;6235039;22;20471;-91
2023/08/11 03:44:33;;;;;;;5.53;4.50;;;;;;;;;;6262755;22;20458;-90
2023/08/11 03:46:59;;;;;;;3.67;3.23;;;;;;;;;;6235135;22;20380;-91
2023/08/11 03:49:25;;;;;;;5.13;3.30;;;;;;;;;;6239951;22;20743;-90
2023/08/11 03:51:51;;;;;;;4.20;3.10;;;;;;;;;;6260668;22;20364;-91
2023/08/11 03:54:17;;;;;;;5.23;3.07;;;;;;;;;;6239710;22;20449;-91
2023/08/11 03:56:43;;;;;;;5.07;3.07;;;;;;;;;;6234225;22;20377;-90
2023/08/11 03:59:09;;;;;;;4.93;3.40;;;;;;;;;;6236420;22;20381;-91
2023/08/11 04:01:36;;;;;;;4.90;2.70;;;;;;;;;;6223016;23;20430;-90
2023/08/11 04:04:02;;;;;;;3.80;3.00;;;;;;;;;;6231545;23;20406;-91
2023/08/11 04:06:32;;;;;;;5.83;3.57;;;;;;;;;;6204189;23;20409;-91
2023/08/11 04:08:59;;;;;;;3.80;3.27;;;;;;;;;;6207167;23;20561;-90
2023/08/11 04:11:25;;;;;;;3.90;3.13;;;;;;;;;;6202833;23;20369;-90
2023/08/11 04:13:51;;;;;;;3.50;2.93;;;;;;;;;;6202812;23;20416;-91
2023/08/11 04:16:17;;;;;;;4.90;4.10;;;;;;;;;;6202769;23;20385;-90
2023/08/11 04:18:43;;;;;;;3.60;3.20;;;;;;;;;;6259548;23;20422;-91
2023/08/11 04:21:09;;;;;;;5.10;3.87;;;;;;;;;;6203174;23;20437;-91
2023/08/11 04:23:35;;;;;;;3.50;3.20;;;;;;;;;;6227812;23;20366;-90
2023/08/11 04:26:02;;;;;;;4.90;3.00;;;;;;;;;;6203938;23;20385;-90
2023/08/11 04:28:27;;;;;;;4.30;3.47;;;;;;;;;;6201447;23;20460;-90
2023/08/11 04:30:55;;;;;;;7.70;4.57;;;;;;;;;;6205449;23;20378;-91
2023/08/11 04:33:21;;;;;;;4.30;3.20;;;;;;;;;;6203022;23;20375;-91
2023/08/11 04:35:49;;;;;;;6.13;3.33;;;;;;;;;;6204195;23;20432;-91
2023/08/11 04:38:15;;;;;;;10.40;3.43;;;;;;;;;;6200841;23;20758;-90
2023/08/11 04:40:41;;;;;;;5.00;3.27;;;;;;;;;;6204933;23;20480;-91
2023/08/11 04:43:08;;;;;;;4.07;3.50;;;;;;;;;;6203529;23;20847;-90
2023/08/11 04:45:34;;;;;;;4.30;3.00;;;;;;;;;;6205982;23;21330;-91
2023/08/11 04:48:00;;;;;;;5.23;3.60;;;;;;;;;;6205108;23;20426;-91
2023/08/11 04:50:27;;;;;;;5.23;3.30;;;;;;;;;;6236446;23;20374;-90
2023/08/11 04:52:53;;;;;;;5.80;3.50;;;;;;;;;;6204441;23;20438;-90
2023/08/11 04:55:19;;;;;;;4.80;4.27;;;;;;;;;;6205394;23;20373;-90
2023/08/11 04:57:45;;;;;;;5.67;3.40;;;;;;;;;;6205269;23;20377;-89
2023/08/11 05:00:14;;;;;;;3.67;3.33;;;;;;;;;;6207565;23;20991;-91
2023/08/11 05:02:43;;;;;;;3.90;3.00;;;;;;;;;;6226728;22;20419;-90
2023/08/11 05:05:10;;;;;;;5.70;4.10;;;;;;;;;;6238716;22;20373;-91
2023/08/11 05:07:36;;;;;;;4.57;3.67;;;;;;;;;;6232879;22;20467;-89
2023/08/11 05:10:02;;;;;;;9.03;3.80;;;;;;;;;;6236495;22;20369;-91
2023/08/11 05:12:28;;;;;;;4.40;3.20;;;;;;;;;;6233986;22;20436;-90
2023/08/11 05:14:54;;;;;;;4.20;2.93;;;;;;;;;;6235485;22;20385;-91
2023/08/11 05:17:20;;;;;;;3.50;2.87;;;;;;;;;;6260127;22;20365;-90
2023/08/11 05:19:46;;;;;;;3.50;3.20;;;;;;;;;;6292845;22;20358;-90
2023/08/11 05:22:12;;;;;;;4.53;4.13;;;;;;;;;;6259763;22;20472;-90
2023/08/11 05:24:38;;;;;;;6.50;3.80;;;;;;;;;;6234500;22;20370;-90
2023/08/11 05:27:05;;;;;;;3.20;2.90;;;;;;;;;;6235584;22;20377;-90
2023/08/11 05:29:31;;;;;;;4.10;2.93;;;;;;;;;;6233933;22;20388;-90
2023/08/11 05:32:00;;;;;;;3.43;3.13;;;;;;;;;;6236064;22;20507;-91
2023/08/11 05:34:26;;;;;;;4.20;3.13;;;;;;;;;;6200957;23;20695;-91
2023/08/11 05:36:55;;;;;;;5.10;3.60;;;;;;;;;;6178026;23;20379;-92
2023/08/11 05:39:21;;;;;;;6.83;3.23;;;;;;;;;;6145810;23;20403;-90
2023/08/11 05:41:47;;;;;;;4.43;3.90;;;;;;;;;;6115583;23;20488;-90
2023/08/11 05:44:13;;;;;;;4.50;3.83;;;;;;;;;;6113143;23;20381;-90
2023/08/11 05:46:40;;;;;;;5.57;4.60;;;;;;;;;;6112158;23;20381;-89
2023/08/11 05:49:08;;;;;;;3.93;3.30;;;;;;;;;;6115278;23;20493;-90
2023/08/11 05:51:34;;;;;;;6.30;3.87;;;;;;;;;;6143422;23;20419;-90
2023/08/11 05:54:00;;;;;;;10.60;3.47;;;;;;;;;;6138255;23;20366;-90
2023/08/11 05:56:27;;;;;;;4.23;3.50;;;;;;;;;;6139442;23;20345;-90
2023/08/11 05:58:53;;;;;;;4.47;3.47;;;;;;;;;;6113349;23;20438;-90
2023/08/11 06:01:19;;;;;;;6.10;3.60;;;;;;;;;;6110597;23;20748;-90
2023/08/11 06:03:45;;;;;;;5.07;4.00;;;;;;;;;;6085014;23;20397;-90
2023/08/11 06:06:11;;;;;;;3.17;2.83;;;;;;;;;;6133908;23;20386;-90
2023/08/11 06:08:36;;;;;;;6.00;3.63;;;;;;;;;;6166380;23;20535;-90
2023/08/11 06:11:02;;;;;;;6.93;3.87;;;;;;;;;;6220229;23;20374;-90
2023/08/11 06:13:28;;;;;;;5.43;3.20;;;;;;;;;;6202523;23;20378;-91
2023/08/11 06:15:54;;;;;;;3.90;2.90;;;;;;;;;;6203551;23;20385;-90
2023/08/11 06:18:20;;;;;;;4.10;3.67;;;;;;;;;;6205222;23;20461;-91
2023/08/11 06:20:47;;;;;;;7.63;6.30;;;;;;;;;;6194171;23;20428;-89
2023/08/11 06:23:13;;;;;;;4.13;3.40;;;;;;;;;;6143840;23;20396;-91
2023/08/11 06:25:39;;;;;;;4.90;3.47;;;;;;;;;;6174479;23;20373;-91
2023/08/11 06:28:07;;;;;;;4.70;3.87;;;;;;;;;;6141166;23;20885;-90
2023/08/11 06:30:33;;;;;;;4.70;3.27;;;;;;;;;;6140898;23;20462;-90
2023/08/11 06:32:59;;;;;;;3.90;3.30;;;;;;;;;;6142462;23;20384;-89
2023/08/11 06:35:25;;;;;;;4.50;2.90;;;;;;;;;;6147848;23;20407;-90
2023/08/11 06:37:51;;;;;;;8.50;3.40;;;;;;;;;;6167438;23;20388;-90
2023/08/11 06:40:18;;;;;;;4.00;3.60;;;;;;;;;;6144452;23;20482;-91
2023/08/11 06:42:44;;;;;;;5.50;3.50;;;;;;;;;;6143577;23;20424;-90
2023/08/11 06:45:10;;;;;;;5.03;4.07;;;;;;;;;;6146166;23;20376;-90
2023/08/11 06:47:36;;;;;;;7.10;3.90;;;;;;;;;;6139594;23;20422;-91
2023/08/11 06:50:03;;;;;;;4.93;3.63;;;;;;;;;;6144130;23;20475;-91
2023/08/11 06:52:29;;;;;;;4.80;3.40;;;;;;;;;;6188914;23;20378;-90
2023/08/11 06:54:55;;;;;;;4.97;4.47;;;;;;;;;;6202929;23;20426;-90
2023/08/11 06:57:21;;;;;;;6.40;4.00;;;;;;;;;;6199689;23;20390;-91
2023/08/11 06:59:47;;;;;;;4.97;4.00;;;;;;;;;;6208402;23;20378;-91
2023/08/11 07:02:13;;;;;;;5.03;3.60;;;;;;;;;;6219651;22;20433;-91
2023/08/11 07:04:39;;;;;;;6.10;4.10;;;;;;;;;;6235879;22;20374;-90
2023/08/11 07:07:05;;;;;;;4.00;3.40;;;;;;;;;;6232692;22;20389;-90
2023/08/11 07:09:32;;;;;;;5.43;4.50;;;;;;;;;;6237100;22;20393;-90
2023/08/11 07:11:58;;;;;;;5.50;3.80;;;;;;;;;;6236525;22;20388;-90
2023/08/11 07:14:24;;;;;;;6.93;3.90;;;;;;;;;;6236397;22;20374;-90
2023/08/11 07:16:50;;;;;;;6.40;3.70;;;;;;;;;;6235160;22;20389;-89
2023/08/11 07:19:18;;;;;;;8.20;4.00;;;;;;;;;;6237632;22;20389;-89
2023/08/11 07:21:44;;;;;;;3.50;3.20;;;;;;;;;;6234138;22;20460;-90
2023/08/11 07:24:10;;;;;;;4.80;4.07;;;;;;;;;;6234784;22;20373;-90
2023/08/11 07:26:36;;;;;;;7.30;3.60;;;;;;;;;;6232813;22;20373;-90
2023/08/11 07:29:02;;;;;;;5.40;4.20;;;;;;;;;;6240487;22;20381;-91
2023/08/11 07:31:28;;;;;;;7.40;4.83;;;;;;;;;;6238061;22;20381;-91
2023/08/11 07:33:54;;;;;;;7.43;4.30;;;;;;;;;;6235955;22;20385;-90
2023/08/11 07:36:20;;;;;;;7.03;4.37;;;;;;;;;;6236465;22;20381;-91
2023/08/11 07:38:46;;;;;;;5.50;4.97;;;;;;;;;;6233632;22;20443;-90
2023/08/11 07:41:12;;;;;;;5.53;4.07;;;;;;;;;;6233841;22;20481;-90
2023/08/11 07:43:38;;;;;;;7.20;4.80;;;;;;;;;;6259144;22;20373;-90
2023/08/11 07:46:04;;;;;;;4.80;3.90;;;;;;;;;;6233291;22;20369;-90
2023/08/11 07:48:30;;;;;;;5.00;4.37;;;;;;;;;;6233649;22;20377;-91
2023/08/11 07:50:56;;;;;;;7.70;4.40;;;;;;;;;;6263272;22;20396;-90
2023/08/11 07:53:22;;;;;;;4.87;4.00;;;;;;;;;;6233304;22;20456;-91
2023/08/11 07:55:48;;;;;;;5.73;4.00;;;;;;;;;;6234738;22;20872;-91
2023/08/11 07:58:14;;;;;;;6.23;4.50;;;;;;;;;;6233757;22;20381;-90
2023/08/11 08:00:40;;;;;;;6.63;4.77;;;;;;;;;;6240313;22;20448;-88
2023/08/11 08:03:06;;;;;;;8.80;4.57;;;;;;;;;;6200858;23;20400;-87
2023/08/11 08:05:32;;;;;;;6.10;4.10;;;;;;;;;;6201425;23;20400;-87
2023/08/11 08:07:58;;;;;;;5.93;4.70;;;;;;;;;;6204185;23;20378;-90
2023/08/11 08:10:25;;;;;;;6.40;5.10;;;;;;;;;;6207622;23;20408;-90
2023/08/11 08:12:51;;;;;;;5.67;4.27;;;;;;;;;;6203884;23;20382;-90
2023/08/11 08:15:17;;;;;;;5.97;4.03;;;;;;;;;;6230941;23;20698;-91
2023/08/11 08:17:43;;;;;;;6.90;4.50;;;;;;;;;;6204347;23;20379;-91
2023/08/11 08:20:09;;;;;;;9.63;4.73;;;;;;;;;;6207908;23;20454;-91
2023/08/11 08:22:36;;;;;;;8.10;5.17;;;;;;;;;;6231422;23;20362;-90
2023/08/11 08:25:06;;;;;;;7.50;4.10;;;;;;;;;;6207867;23;20381;-90
2023/08/11 08:27:32;;;;;;;8.70;4.30;;;;;;;;;;6205162;23;20374;-90
2023/08/11 08:30:11;;;;;;;5.30;4.13;;;;;;;;;;6208998;22;20380;-90
2023/08/11 08:32:38;;;;;;;5.37;4.10;;;;;;;;;;6208800;23;20378;-92
2023/08/11 08:35:07;;;;;;;5.97;3.97;;;;;;;;;;6208224;23;20541;-90
2023/08/11 08:37:33;;;;;;;5.30;4.80;;;;;;;;;;6208033;23;20408;-91
2023/08/11 08:40:00;;;;;;;4.40;3.77;;;;;;;;;;6209332;22;20374;-90
2023/08/11 08:42:26;;;;;;;4.63;3.67;;;;;;;;;;6166002;23;20714;-90
2023/08/11 08:44:52;;;;;;;6.03;4.10;;;;;;;;;;6142010;23;20448;-91
2023/08/11 08:47:18;;;;;;;5.57;4.30;;;;;;;;;;6139905;23;20698;-92
2023/08/11 08:49:48;;;;;;;4.20;3.63;;;;;;;;;;6143771;23;20907;-92
2023/08/11 08:52:15;;;;;;;6.73;4.13;;;;;;;;;;6143652;23;20385;-90
2023/08/11 08:54:42;;;;;;;5.80;3.90;;;;;;;;;;6142575;23;20424;-90
2023/08/11 08:57:10;;;;;;;5.90;4.40;;;;;;;;;;6167566;23;20734;-91
2023/08/11 08:59:43;;;;;;;6.50;4.03;;;;;;;;;;6144535;23;20393;-93
2023/08/11 09:02:10;;;;;;;5.50;4.27;;;;;;;;;;6187318;23;20439;-92
2023/08/11 09:04:35;;;;;;;5.10;4.60;;;;;;;;;;6146944;23;20380;-92
2023/08/11 09:07:01;;;;;;;10.50;4.70;;;;;;;;;;6147529;23;20431;-92
2023/08/11 09:09:28;;;;;;;5.53;4.17;;;;;;;;;;6146417;23;20392;-91
2023/08/11 09:11:54;;;;;;;5.40;4.90;;;;;;;;;;6150599;23;20379;-92
2023/08/11 09:14:20;;;;;;;4.60;4.10;;;;;;;;;;6201197;23;20424;-92
2023/08/11 09:16:47;;;;;;;5.10;3.93;;;;;;;;;;6234664;23;20365;-93
2023/08/11 09:19:13;;;;;;;8.13;4.50;;;;;;;;;;6207317;22;20389;-92
2023/08/11 09:21:43;;;;;;;4.40;3.43;;;;;;;;;;6209271;23;20453;-93
2023/08/11 09:24:12;;;;;;;6.67;3.90;;;;;;;;;;6205895;23;20417;-92
2023/08/11 09:26:38;;;;;;;6.23;4.00;;;;;;;;;;6206465;23;20388;-92
2023/08/11 09:29:04;;;;;;;5.63;3.97;;;;;;;;;;6206512;23;21121;-92
2023/08/11 09:31:30;;;;;;;4.70;3.70;;;;;;;;;;6211297;23;20401;-92
2023/08/11 09:33:56;;;;;;;5.97;3.93;;;;;;;;;;6208512;23;20370;-92
2023/08/11 09:36:22;;;;;;;4.73;4.00;;;;;;;;;;6205994;23;20707;-92
2023/08/11 09:38:49;;;;;;;5.77;4.30;;;;;;;;;;6207101;23;20465;-91
2023/08/11 09:41:20;;;;;;;4.80;3.90;;;;;;;;;;6206340;22;20453;-92
2023/08/11 09:43:47;;;;;;;4.60;4.10;;;;;;;;;;6232473;23;20370;-92
2023/08/11 09:46:14;;;;;;;3.90;3.50;;;;;;;;;;6204684;23;20474;-92
2023/08/11 09:48:40;;;;;;;6.33;4.57;;;;;;;;;;6208432;23;20381;-92
2023/08/11 09:51:10;;;;;;;4.63;4.23;;;;;;;;;;6205246;23;20402;-92
2023/08/11 09:53:39;;;;;;;4.80;4.30;;;;;;;;;;6201295;23;20375;-92
2023/08/11 09:56:05;;;;;;;4.80;3.83;;;;;;;;;;6170588;23;20387;-92
2023/08/11 09:58:31;;;;;;;4.37;3.77;;;;;;;;;;6174231;23;20406;-92
2023/08/11 10:00:57;;;;;;;5.80;4.07;;;;;;;;;;6173229;23;20426;-92
2023/08/11 10:03:26;;;;;;;5.57;3.80;;;;;;;;;;6178739;23;20403;-92
2023/08/11 10:05:53;;;;;;;6.20;4.47;;;;;;;;;;6171896;23;20410;-91
2023/08/11 10:08:19;;;;;;;4.87;4.10;;;;;;;;;;6173872;23;20367;-91
2023/08/11 10:10:45;;;;;;;7.10;4.57;;;;;;;;;;6174164;23;20414;-92
2023/08/11 10:13:15;;;;;;;5.40;4.40;;;;;;;;;;6174026;23;20413;-88
2023/08/11 10:15:41;;;;;;;6.17;4.30;;;;;;;;;;6166642;23;20397;-88
2023/08/11 10:18:07;;;;;;;5.00;4.10;;;;;;;;;;6111506;23;20385;-92
2023/08/11 10:20:33;;;;;;;4.57;4.00;;;;;;;;;;6114082;23;20408;-91
2023/08/11 10:23:00;;;;;;;7.20;4.77;;;;;;;;;;6114304;23;20409;-91
2023/08/11 10:25:26;;;;;;;5.40;4.23;;;;;;;;;;6117998;23;20388;-90
2023/08/11 10:27:52;;;;;;;4.60;4.03;;;;;;;;;;6141168;23;20464;-91
2023/08/11 10:30:18;;;;;;;5.20;4.70;;;;;;;;;;6140603;23;21099;-91
2023/08/11 10:32:44;;;;;;;4.40;3.80;;;;;;;;;;6136668;23;20599;-91
2023/08/11 10:35:19;;;;;;;6.40;3.67;;;;;;;;;;6145119;23;20433;-92
2023/08/11 10:37:57;;;;;;;7.60;3.97;;;;;;;;;;6135709;23;20396;-91
2023/08/11 10:40:23;;;;;;;7.47;4.77;;;;;;;;;;6138936;23;20416;-93
2023/08/11 10:42:49;;;;;;;4.63;3.63;;;;;;;;;;6138837;23;20392;-93
2023/08/11 10:45:16;;;;;;;6.40;4.03;;;;;;;;;;6136381;23;20377;-92
2023/08/11 10:47:45;;;;;;;5.70;4.50;;;;;;;;;;6134329;23;20869;-92
2023/08/11 10:50:11;;;;;;;4.90;4.40;;;;;;;;;;6135686;23;20431;-93
2023/08/11 10:52:38;;;;;;;4.90;4.40;;;;;;;;;;6135990;23;20400;-92
2023/08/11 10:55:04;;;;;;;4.63;3.73;;;;;;;;;;6140643;23;20409;-90
2023/08/11 10:57:31;;;;;;;6.47;4.40;;;;;;;;;;6134627;23;20437;-92
2023/08/11 10:59:57;;;;;;;5.63;4.33;;;;;;;;;;6198549;23;20393;-91
2023/08/11 11:02:24;;;;;;;8.17;4.57;;;;;;;;;;6222810;22;20420;-92
2023/08/11 11:04:54;;;;;;;5.47;4.27;;;;;;;;;;6237497;22;20396;-91
2023/08/11 11:07:23;;;;;;;6.10;4.53;;;;;;;;;;6234865;22;20386;-91
2023/08/11 11:09:50;;;;;;;5.40;4.70;;;;;;;;;;6261842;22;20380;-92
2023/08/11 11:12:16;;;;;;;5.33;4.60;;;;;;;;;;6239983;22;20389;-92
2023/08/11 11:14:44;;;;;;;5.03;4.40;;;;;;;;;;6235555;22;20373;-91
2023/08/11 11:17:10;;;;;;;8.43;6.80;;;;;;;;;;6236092;22;20373;-92
2023/08/11 11:19:36;;;;;;;5.23;4.73;;;;;;;;;;6236028;22;20378;-91
2023/08/11 11:22:02;;;;;;;6.03;4.50;;;;;;;;;;6264413;22;20409;-90
2023/08/11 11:24:28;;;;;;;4.63;4.20;;;;;;;;;;6237345;22;20396;-90
2023/08/11 11:26:54;;;;;;;5.37;4.47;;;;;;;;;;6242386;22;20377;-92
2023/08/11 11:29:23;;;;;;;7.40;5.00;;;;;;;;;;6235685;22;20468;-92
2023/08/11 11:31:49;;;;;;;4.97;4.47;;;;;;;;;;6238498;22;20382;-92
2023/08/11 11:34:16;;;;;;;6.00;4.47;;;;;;;;;;6260609;22;20365;-92
2023/08/11 11:36:45;;;;;;;5.03;4.30;;;;;;;;;;6238501;22;20373;-92
2023/08/11 11:39:11;;;;;;;4.70;4.03;;;;;;;;;;6260760;22;20366;-91
2023/08/11 11:41:38;;;;;;;5.07;4.57;;;;;;;;;;6237207;22;20519;-90
2023/08/11 11:44:04;;;;;;;7.53;4.80;;;;;;;;;;6193839;23;20399;-93
2023/08/11 11:46:31;;;;;;;5.00;4.10;;;;;;;;;;6144001;23;20391;-91
2023/08/11 11:48:57;;;;;;;5.93;4.70;;;;;;;;;;6142711;23;20772;-91
2023/08/11 11:51:29;;;;;;;4.70;4.30;;;;;;;;;;6148023;23;20384;-92
2023/08/11 11:53:56;;;;;;;4.93;4.53;;;;;;;;;;6144737;23;20384;-91
2023/08/11 11:56:22;;;;;;;5.00;4.50;;;;;;;;;;6145294;23;20379;-92
2023/08/11 11:58:51;;;;;;;5.07;3.70;;;;;;;;;;6145683;23;20431;-92
2023/08/11 12:01:18;;;;;;;6.47;4.60;;;;;;;;;;6144442;23;20471;-92
2023/08/11 12:03:44;;;;;;;4.77;4.23;;;;;;;;;;6145179;23;20380;-89
2023/08/11 12:06:18;;;;;;;5.70;4.10;;;;;;;;;;6144400;23;20402;-88
2023/08/11 12:08:44;;;;;;;4.73;4.23;;;;;;;;;;6169548;23;20458;-90
2023/08/11 12:11:15;;;;;;;4.90;4.30;;;;;;;;;;6142109;23;20429;-90
2023/08/11 12:13:42;;;;;;;5.40;4.27;;;;;;;;;;6167364;23;20396;-90
2023/08/11 12:16:08;;;;;;;5.00;4.07;;;;;;;;;;6143354;23;20486;-94
2023/08/11 12:18:34;;;;;;;6.23;4.87;;;;;;;;;;6143842;23;20395;-90
2023/08/11 12:21:01;;;;;;;5.47;4.00;;;;;;;;;;6142753;23;21244;-89
2023/08/11 12:23:27;;;;;;;5.67;4.10;;;;;;;;;;6147096;23;20945;-91
2023/08/11 12:25:53;;;;;;;4.37;3.97;;;;;;;;;;6143810;23;20384;-91
2023/08/11 12:28:20;;;;;;;5.13;4.70;;;;;;;;;;6207597;22;20389;-91
2023/08/11 12:30:56;;;;;;;4.50;4.10;;;;;;;;;;6236471;22;20378;-90
2023/08/11 12:33:22;;;;;;;4.33;3.93;;;;;;;;;;6240732;22;20433;-89
2023/08/11 12:35:48;;;;;;;4.23;3.83;;;;;;;;;;6258788;22;20369;-89
2023/08/11 12:38:15;;;;;;;4.87;3.90;;;;;;;;;;6235045;22;20391;-90
2023/08/11 12:40:45;;;;;;;4.50;4.10;;;;;;;;;;6234638;22;20432;-90
2023/08/11 12:43:11;;;;;;;4.83;4.00;;;;;;;;;;6245961;22;20440;-89
2023/08/11 12:45:37;;;;;;;4.20;3.80;;;;;;;;;;6233994;22;20358;-90
2023/08/11 12:48:03;;;;;;;6.73;4.10;;;;;;;;;;6235032;22;20378;-89
2023/08/11 12:50:29;;;;;;;3.87;3.40;;;;;;;;;;6233526;22;20389;-90
2023/08/11 12:52:56;;;;;;;4.63;4.23;;;;;;;;;;6236631;22;20381;-90
2023/08/11 12:55:23;;;;;;;4.40;3.67;;;;;;;;;;6231696;22;20407;-90
2023/08/11 12:57:49;;;;;;;5.27;4.17;;;;;;;;;;6236172;22;20876;-90
2023/08/11 13:00:16;;;;;;;4.50;4.10;;;;;;;;;;6232903;22;20392;-90
2023/08/11 13:02:42;;;;;;;9.30;3.80;;;;;;;;;;6212862;23;20390;-89
2023/08/11 13:05:10;;;;;;;4.33;3.93;;;;;;;;;;6230456;23;20362;-92
2023/08/11 13:07:36;;;;;;;4.57;4.10;;;;;;;;;;6206744;23;20394;-91
2023/08/11 13:10:04;;;;;;;5.13;3.73;;;;;;;;;;6205423;23;20465;-90
2023/08/11 13:12:44;;;;;;;4.37;3.93;;;;;;;;;;6214040;23;20444;-90
2023/08/11 13:15:12;;;;;;;3.67;3.37;;;;;;;;;;6258237;23;20361;-91
2023/08/11 13:17:38;;;;;;;4.97;4.53;;;;;;;;;;6207344;23;20382;-91
2023/08/11 13:20:09;;;;;;;6.40;3.73;;;;;;;;;;6209075;23;20394;-90
2023/08/11 13:22:37;;;;;;;8.37;3.77;;;;;;;;;;6234305;23;20353;-90
2023/08/11 13:25:03;;;;;;;6.60;4.50;;;;;;;;;;6210475;23;20461;-90
2023/08/11 13:27:29;;;;;;;4.20;3.80;;;;;;;;;;6207357;23;20417;-90
2023/08/11 13:29:55;;;;;;;4.00;3.60;;;;;;;;;;6208943;23;20845;-89
2023/08/11 13:32:21;;;;;;;3.97;3.50;;;;;;;;;;6207912;23;20446;-90
2023/08/11 13:34:48;;;;;;;4.40;4.00;;;;;;;;;;6211439;23;20466;-90
2023/08/11 13:37:14;;;;;;;4.83;3.70;;;;;;;;;;6208118;23;20505;-90
2023/08/11 13:39:42;;;;;;;6.40;4.50;;;;;;;;;;6206952;23;20387;-90
2023/08/11 13:42:09;;;;;;;6.50;3.67;;;;;;;;;;6207111;23;20624;-90
2023/08/11 13:44:43;;;;;;;4.20;3.80;;;;;;;;;;6209373;23;20421;-90
2023/08/11 13:47:09;;;;;;;4.33;3.50;;;;;;;;;;6164555;23;20385;-90
2023/08/11 13:49:35;;;;;;;4.27;3.87;;;;;;;;;;6164074;23;20416;-89
2023/08/11 13:52:01;;;;;;;5.77;3.87;;;;;;;;;;6162803;23;20475;-89
2023/08/11 13:54:28;;;;;;;4.90;3.73;;;;;;;;;;6164402;23;20420;-88
2023/08/11 13:56:54;;;;;;;4.10;3.70;;;;;;;;;;6161821;23;20392;-88
2023/08/11 13:59:20;;;;;;;4.27;3.70;;;;;;;;;;6162094;23;20487;-87
2023/08/11 14:01:46;;;;;;;3.60;3.30;;;;;;;;;;6176008;23;20439;-90
2023/08/11 14:04:13;;;;;;;5.00;4.20;;;;;;;;;;6169105;23;20407;-90
2023/08/11 14:06:42;;;;;;;4.00;3.70;;;;;;;;;;6171308;23;20388;-89
2023/08/11 14:09:08;;;;;;;4.57;3.80;;;;;;;;;;6171059;23;20422;-89
2023/08/11 14:11:37;;;;;;;4.50;3.90;;;;;;;;;;6170986;23;20477;-90
2023/08/11 14:14:24;;;;;;;4.30;3.90;;;;;;;;;;6170933;23;20407;-90
2023/08/11 14:16:51;;;;;;;8.47;3.90;;;;;;;;;;6148750;23;20416;-90
2023/08/11 14:19:17;;;;;;;4.57;4.17;;;;;;;;;;6235667;22;20855;-89
2023/08/11 14:21:43;;;;;;;5.87;4.23;;;;;;;;;;6238606;22;20931;-90
2023/08/11 14:24:10;;;;;;;4.20;3.80;;;;;;;;;;6240555;22;20407;-89
2023/08/11 14:26:36;;;;;;;4.93;3.77;;;;;;;;;;6265651;22;20389;-90
2023/08/11 14:29:05;;;;;;;5.63;4.50;;;;;;;;;;6236770;22;20452;-91
2023/08/11 14:31:33;;;;;;;5.33;3.60;;;;;;;;;;6236744;22;20369;-91
2023/08/11 14:34:02;;;;;;;5.20;4.13;;;;;;;;;;6236022;22;20748;-90
2023/08/11 14:36:28;;;;;;;4.63;3.87;;;;;;;;;;6239403;22;20413;-91
2023/08/11 14:38:54;;;;;;;4.30;3.43;;;;;;;;;;6234438;22;20420;-90
2023/08/11 14:41:21;;;;;;;3.83;3.30;;;;;;;;;;6235659;22;20417;-89